createdAt,value
2022-12-16T00:04:47.479Z,96749.81
2022-12-16T00:09:49.963Z,96746.16
2022-12-16T00:14:54.150Z,96748.53
2022-12-16T00:19:57.389Z,96747.66
2022-12-16T00:24:59.983Z,96747.72
2022-12-16T00:30:02.487Z,96744.28
2022-12-16T00:35:05.171Z,96754.91
2022-12-16T00:40:08.139Z,96750.91
2022-12-16T00:45:11.731Z,96750.50
2022-12-16T00:50:14.216Z,96752.94
2022-12-16T00:55:17.945Z,96757.66
2022-12-16T01:00:22.482Z,96761.63
2022-12-16T01:05:27.077Z,96776.88
2022-12-16T01:10:29.679Z,96777.13
2022-12-16T01:15:32.115Z,96787.91
2022-12-16T01:20:34.588Z,96788.56
2022-12-16T01:25:37.061Z,96791.34
2022-12-16T01:30:39.534Z,96798.59
2022-12-16T01:35:54.911Z,96799.41
2022-12-16T01:40:58.866Z,96796.25
2022-12-16T01:46:18.124Z,96809.69
2022-12-16T01:51:31.455Z,96808.75
2022-12-16T01:56:40.604Z,96819.50
2022-12-16T02:01:43.318Z,96824.84
2022-12-16T02:06:45.863Z,96822.59
2022-12-16T02:11:57.152Z,96828.09
2022-12-16T02:17:21.515Z,96831.09
2022-12-16T02:23:01.540Z,96838.63
2022-12-16T02:28:22.685Z,96838.16
2022-12-16T02:34:09.176Z,96832.22
2022-12-16T02:39:30.085Z,96822.41
2022-12-16T02:44:58.378Z,96836.16
2022-12-16T02:50:01.125Z,96843.91
2022-12-16T02:55:09.119Z,96841.63
2022-12-16T03:00:16.115Z,96848.03
2022-12-16T03:05:43.027Z,96856.00
2022-12-16T03:10:49.764Z,96862.16
2022-12-16T03:15:56.577Z,96858.38
2022-12-16T03:21:06.458Z,96858.69
2022-12-16T03:26:16.118Z,96872.19
2022-12-16T03:31:30.419Z,96874.88
2022-12-16T03:36:37.823Z,96879.41
2022-12-16T03:41:43.819Z,96876.91
2022-12-16T03:46:47.739Z,96887.88
2022-12-16T03:51:50.283Z,96889.41
2022-12-16T03:56:52.747Z,96897.16
2022-12-16T04:01:55.329Z,96896.03
2022-12-16T04:07:16.462Z,96905.38
2022-12-16T04:12:38.254Z,96905.25
2022-12-16T04:17:59.687Z,96910.63
2022-12-16T04:23:20.889Z,96918.97
2022-12-16T04:28:25.856Z,96923.53
2022-12-16T04:34:01.314Z,96925.72
2022-12-16T04:39:22.387Z,96938.97
2022-12-16T04:44:43.412Z,96939.69
2022-12-16T04:50:04.762Z,96950.06
2022-12-16T04:55:26.685Z,96951.25
2022-12-16T05:00:47.875Z,96960.13
2022-12-16T05:06:09.034Z,96967.94
2022-12-16T05:11:30.299Z,96966.66
2022-12-16T05:16:51.508Z,96971.16
2022-12-16T05:22:12.642Z,96972.66
2022-12-16T05:27:34.041Z,96993.47
2022-12-16T05:32:55.375Z,96990.31
2022-12-16T05:38:16.760Z,96997.91
2022-12-16T05:43:38.098Z,97005.09
2022-12-16T05:48:59.299Z,97019.44
2022-12-16T05:54:20.443Z,97023.22
2022-12-16T05:59:41.582Z,97033.19
2022-12-16T06:05:02.820Z,97035.91
2022-12-16T06:10:24.089Z,97042.97
2022-12-16T06:15:45.118Z,97054.78
2022-12-16T06:21:06.599Z,97065.91
2022-12-16T06:26:27.671Z,97073.44
2022-12-16T06:31:49.166Z,97083.06
2022-12-16T06:37:10.383Z,97090.53
2022-12-16T06:42:31.840Z,97098.22
2022-12-16T06:47:52.913Z,97111.72
2022-12-16T06:53:14.064Z,97117.44
2022-12-16T06:58:34.949Z,97122.78
2022-12-16T07:03:56.274Z,97136.22
2022-12-16T07:09:17.934Z,97150.44
2022-12-16T07:14:38.952Z,97158.06
2022-12-16T07:20:00.219Z,97174.13
2022-12-16T07:25:21.234Z,97174.97
2022-12-16T07:30:42.295Z,97182.22
2022-12-16T07:36:03.543Z,97177.94
2022-12-16T07:41:24.509Z,97188.38
2022-12-16T07:46:45.713Z,97199.47
2022-12-16T07:52:06.848Z,97215.59
2022-12-16T07:57:28.211Z,97225.53
2022-12-16T08:02:49.568Z,97223.97
2022-12-16T08:08:10.660Z,97234.69
2022-12-16T08:13:31.880Z,97243.06
2022-12-16T08:18:53.325Z,97237.72
2022-12-16T08:24:15.712Z,97257.59
2022-12-16T08:29:45.355Z,97262.97
2022-12-16T08:35:07.144Z,97275.19
2022-12-16T08:40:36.571Z,97289.88
2022-12-16T08:45:58.499Z,97293.03
2022-12-16T08:51:41.098Z,97291.81
2022-12-16T08:57:02.218Z,97310.56
2022-12-16T09:02:23.698Z,97310.59
2022-12-16T09:07:44.715Z,97326.56
2022-12-16T09:13:05.903Z,97330.44
2022-12-16T09:18:27.202Z,97338.91
2022-12-16T09:23:48.218Z,97334.31
2022-12-16T09:29:09.615Z,97344.66
2022-12-16T09:34:30.615Z,97351.44
2022-12-16T09:39:51.820Z,97353.66
2022-12-16T09:45:45.025Z,97363.19
2022-12-16T09:51:07.175Z,97369.81
2022-12-16T09:56:37.446Z,97370.56
2022-12-16T10:01:58.884Z,97373.22
2022-12-16T10:07:20.755Z,97377.94
2022-12-16T10:12:57.231Z,97385.63
2022-12-16T10:18:32.522Z,97387.88
2022-12-16T10:24:13.232Z,97383.53
2022-12-16T10:29:43.845Z,97383.66
2022-12-16T10:35:27.732Z,97387.09
2022-12-16T10:40:52.467Z,97390.16
2022-12-16T10:46:17.006Z,97386.13
2022-12-16T10:51:41.522Z,97386.16
2022-12-16T10:57:42.135Z,97392.03
2022-12-16T11:03:16.984Z,97396.53
2022-12-16T11:08:47.797Z,97406.31
2022-12-16T11:14:09.666Z,97409.56
2022-12-16T11:19:41.306Z,97424.41
2022-12-16T11:25:02.514Z,97414.53
2022-12-16T11:30:43.967Z,97425.25
2022-12-16T11:36:18.132Z,97427.25
2022-12-16T11:42:03.607Z,97425.16
2022-12-16T11:47:45.597Z,97429.31
2022-12-16T11:53:13.660Z,97427.44
2022-12-16T11:58:56.953Z,97436.31
2022-12-16T12:04:18.473Z,97439.13
2022-12-16T12:09:45.775Z,97437.47
2022-12-16T12:15:11.700Z,97435.81
2022-12-16T12:21:00.093Z,97457.31
2022-12-16T12:26:26.903Z,97461.78
2022-12-16T12:32:17.456Z,97470.75
2022-12-16T12:38:20.580Z,97481.81
2022-12-16T12:43:57.354Z,97481.81
2022-12-16T12:49:33.358Z,97483.47
2022-12-16T12:55:30.743Z,97488.88
2022-12-16T13:00:58.582Z,97492.34
2022-12-16T13:06:21.032Z,97494.16
2022-12-16T13:11:42.923Z,97493.16
2022-12-16T13:17:04.172Z,97501.41
2022-12-16T13:22:44.118Z,97510.53
2022-12-16T13:28:15.469Z,97526.53
2022-12-16T13:33:46.439Z,97534.19
2022-12-16T13:39:09.876Z,97548.94
2022-12-16T13:44:51.568Z,97549.78
2022-12-16T13:50:12.904Z,97546.69
2022-12-16T13:55:57.995Z,97561.41
2022-12-16T14:01:28.499Z,97565.97
2022-12-16T14:06:53.477Z,97581.31
2022-12-16T14:12:24.327Z,97594.06
2022-12-16T14:17:59.196Z,97602.94
2022-12-16T14:23:58.993Z,97612.69
2022-12-16T14:29:22.539Z,97625.75
2022-12-16T14:34:54.494Z,97637.41
2022-12-16T14:40:16.232Z,97647.13
2022-12-16T14:45:55.394Z,97654.88
2022-12-16T14:51:16.362Z,97656.38
2022-12-16T14:56:40.871Z,97663.16
2022-12-16T15:02:01.821Z,97666.72
2022-12-16T15:07:31.479Z,97671.31
2022-12-16T15:13:00.303Z,97674.78
2022-12-16T15:18:22.535Z,97684.84
2022-12-16T15:23:49.738Z,97696.22
2022-12-16T15:29:11.633Z,97688.97
2022-12-16T15:34:48.625Z,97699.69
2022-12-16T15:40:09.193Z,97717.38
2022-12-16T15:45:51.553Z,97721.94
2022-12-16T15:51:29.211Z,97725.44
2022-12-16T15:57:03.736Z,97736.16
2022-12-16T16:02:44.023Z,97752.72
2022-12-16T16:08:05.936Z,97766.78
2022-12-16T16:13:28.513Z,97770.28
2022-12-16T16:18:49.277Z,97788.22
2022-12-16T16:27:32.728Z,97787.84
2022-12-16T16:32:53.601Z,97802.34
2022-12-16T16:38:18.395Z,97799.97
2022-12-16T16:43:40.521Z,97800.09
2022-12-16T16:49:01.397Z,97808.34
2022-12-16T16:54:22.069Z,97806.09
2022-12-16T16:59:43.219Z,97805.66
2022-12-16T17:05:03.943Z,97812.31
2022-12-16T17:10:25.374Z,97828.34
2022-12-16T17:15:54.439Z,97839.22
2022-12-16T17:21:15.215Z,97833.25
2022-12-16T17:26:36.562Z,97856.91
2022-12-16T17:31:57.274Z,97869.31
2022-12-16T17:37:17.997Z,97874.69
2022-12-16T17:42:44.715Z,97868.63
2022-12-16T17:48:07.087Z,97878.59
2022-12-16T17:53:27.754Z,97889.78
2022-12-16T17:58:57.027Z,97891.41
2022-12-16T18:04:18.094Z,97894.84
2022-12-16T18:09:39.648Z,97897.84
2022-12-16T18:15:00.387Z,97905.66
2022-12-16T18:20:21.071Z,97913.75
2022-12-16T18:25:41.562Z,97914.47
2022-12-16T18:31:02.194Z,97925.63
2022-12-16T18:36:23.579Z,97929.06
2022-12-16T18:41:44.150Z,97940.97
2022-12-16T18:47:06.216Z,97950.91
2022-12-16T18:52:29.730Z,97953.25
2022-12-16T18:57:50.474Z,97966.16
2022-12-16T19:03:11.265Z,97967.78
2022-12-16T19:08:32.279Z,97972.16
2022-12-16T19:13:53.323Z,97985.34
2022-12-16T19:19:19.367Z,97988.75
2022-12-16T19:24:40.833Z,98001.00
2022-12-16T19:30:01.624Z,98000.53
2022-12-16T19:35:22.642Z,98002.09
2022-12-16T19:40:43.440Z,98016.25
2022-12-16T19:46:14.015Z,98026.63
2022-12-16T19:51:34.577Z,98032.31
2022-12-16T19:56:55.396Z,98038.97
2022-12-16T20:02:16.094Z,98052.75
2022-12-16T20:07:37.229Z,98065.13
2022-12-16T20:12:57.676Z,98057.28
2022-12-16T20:18:18.302Z,98066.06
2022-12-16T20:23:40.094Z,98077.03
2022-12-16T20:29:01.862Z,98085.44
2022-12-16T20:34:22.569Z,98089.16
2022-12-16T20:39:49.450Z,98087.31
2022-12-16T20:45:13.800Z,98095.13
2022-12-16T20:50:34.142Z,98101.44
2022-12-16T20:55:56.127Z,98104.78
2022-12-16T21:01:16.850Z,98101.47
2022-12-16T21:06:37.874Z,98105.94
2022-12-16T21:11:58.488Z,98116.41
2022-12-16T21:17:19.301Z,98134.66
2022-12-16T21:22:40.391Z,98138.72
2022-12-16T21:28:01.001Z,98145.22
2022-12-16T21:33:21.709Z,98147.16
2022-12-16T21:38:42.301Z,98151.72
2022-12-16T21:44:03.173Z,98155.69
2022-12-16T21:49:23.574Z,98164.00
2022-12-16T21:54:44.398Z,98172.25
2022-12-16T22:00:05.046Z,98185.63
2022-12-16T22:05:31.009Z,98186.22
2022-12-16T22:10:51.867Z,98210.97
2022-12-16T22:16:18.377Z,98219.50
2022-12-16T22:21:39.495Z,98222.94
2022-12-16T22:27:00.176Z,98237.44
2022-12-16T22:32:21.032Z,98242.31
2022-12-16T22:37:41.459Z,98245.41
2022-12-16T22:43:02.119Z,98255.41
2022-12-16T22:48:23.015Z,98258.94
2022-12-16T22:53:45.125Z,98267.44
2022-12-16T22:59:07.656Z,98273.97
2022-12-16T23:04:29.303Z,98275.84
2022-12-16T23:09:50.153Z,98283.25
2022-12-16T23:15:15.473Z,98284.88
2022-12-16T23:20:36.183Z,98291.19
2022-12-16T23:25:57.100Z,98291.97
2022-12-16T23:31:18.155Z,98288.19
2022-12-16T23:36:39.861Z,98288.00
2022-12-16T23:42:00.646Z,98291.13
2022-12-16T23:47:21.229Z,98282.91
2022-12-16T23:52:42.074Z,98284.41
2022-12-16T23:58:02.656Z,98298.38
